Estación de Quilanto INIA

Ultimos registro cada 15 minutos 43
Estación Fecha / Hora Temperatura Humedad Lluvia Velocidad Dirección Radiación Presion
43 Quilanto INIA 06-05-2026 10:30 8,2 92,5 0 4,8 16 65 0
42 Quilanto INIA 06-05-2026 10:15 8,1 92,6 0 4,8 14 52 0
41 Quilanto INIA 06-05-2026 10:00 8,1 93,2 0 5,1 21 54 0
40 Quilanto INIA 06-05-2026 09:45 8 93,6 0 5,6 12 39 0
39 Quilanto INIA 06-05-2026 09:30 8 94,4 0 5,7 16 41 0
38 Quilanto INIA 06-05-2026 09:15 7,9 95 0 5,3 4 49 0
37 Quilanto INIA 06-05-2026 09:00 7,8 96 0 4,8 14 18 0
36 Quilanto INIA 06-05-2026 08:45 7,8 96,3 0 4,6 13 12 0
35 Quilanto INIA 06-05-2026 08:30 7,9 96,4 0 5,3 11 10 0
34 Quilanto INIA 06-05-2026 08:15 7,8 96,9 0 4,9 2 6 0
33 Quilanto INIA 06-05-2026 08:00 7,8 97,1 0 4,8 8 2 0
32 Quilanto INIA 06-05-2026 07:45 7,9 97,5 0 4,8 7 0 0
31 Quilanto INIA 06-05-2026 07:30 8 97,5 0 5,1 14 0 0
30 Quilanto INIA 06-05-2026 07:15 8,1 97,6 0,1 4,5 8 0 0
29 Quilanto INIA 06-05-2026 07:00 8,2 97,4 0,1 4,7 10 0 0
28 Quilanto INIA 06-05-2026 06:45 8,3 97,4 0,3 4,1 13 0 0
27 Quilanto INIA 06-05-2026 06:30 8,4 97,3 0,3 4,2 13 0 0
26 Quilanto INIA 06-05-2026 06:15 8,4 97,3 0,4 3,8 12 0 0
25 Quilanto INIA 06-05-2026 06:00 8,4 97,2 0,6 3,5 11 0 0
24 Quilanto INIA 06-05-2026 05:45 8,5 97,3 0,6 3,8 17 0 0
23 Quilanto INIA 06-05-2026 05:30 8,6 97,4 0,5 3,7 14 0 0
22 Quilanto INIA 06-05-2026 05:15 8,6 97,7 0,5 3,5 12 0 0
21 Quilanto INIA 06-05-2026 05:00 8,8 97,7 0,4 2,7 8 0 0
20 Quilanto INIA 06-05-2026 04:45 8,8 97,9 0,7 2,4 8 0 0
19 Quilanto INIA 06-05-2026 04:30 8,8 97,9 0,9 2,6 13 0 0
18 Quilanto INIA 06-05-2026 04:15 8,9 98 0,3 2,6 9 0 0
17 Quilanto INIA 06-05-2026 04:00 8,8 97,9 0,3 3,5 11 0 0
16 Quilanto INIA 06-05-2026 03:45 8,8 97,9 0,2 2,9 351 0 0
15 Quilanto INIA 06-05-2026 03:30 8,9 97,8 0,4 2,8 9 0 0
14 Quilanto INIA 06-05-2026 03:15 9 97,9 0,6 2,7 11 0 0
13 Quilanto INIA 06-05-2026 03:00 8,9 98 0,2 2,8 352 0 0
12 Quilanto INIA 06-05-2026 02:45 8,9 98 0,2 2,5 354 0 0
11 Quilanto INIA 06-05-2026 02:30 8,8 98 0,3 2,8 356 0 0
10 Quilanto INIA 06-05-2026 02:15 8,8 98,1 0,8 3 2 0 0
9 Quilanto INIA 06-05-2026 02:00 8,7 98,1 0,7 2,7 3 0 0
8 Quilanto INIA 06-05-2026 01:45 8,7 98,1 0,9 2,8 357 0 0
7 Quilanto INIA 06-05-2026 01:30 8,6 98 1,1 2,7 2 0 0
6 Quilanto INIA 06-05-2026 01:15 8,7 98,1 1,2 2,6 356 0 0
5 Quilanto INIA 06-05-2026 01:00 8,8 98 0,9 2,6 6 0 0
4 Quilanto INIA 06-05-2026 00:45 8,8 98 0,1 3,1 2 0 0
3 Quilanto INIA 06-05-2026 00:30 9 98,3 0,2 3,3 2 0 0
2 Quilanto INIA 06-05-2026 00:15 9,3 98 0,3 2,8 11 0 0
1 Quilanto INIA 06-05-2026 00:00 9,5 98,2 0,3 2,5 15 0 0